Time;durP1;ratioP1;P1;durP2;ratioP2;P2;SDS_P1;SDS_P2;PMS_P1;PMS_P2;Temp;Humidity;BMP_temperature;BMP_pressure;BME280_temperature;BME280_humidity;BME280_pressure;Samples;Min_cycle;Max_cycle;Signal;HPM_P1;HPM_P2
2021/04/21 00:00:08;;;;;;;61.72;34.28;;;;;;;3.57;100.00;95952.91;1023484;29;20482;-62
2021/04/21 00:00:39;;;;;;;64.10;35.15;;;;;;;3.57;100.00;95955.53;1031561;28;20018;-63
2021/04/21 00:01:10;;;;;;;56.08;31.60;;;;;;;3.57;100.00;95947.66;1023567;29;20015;-62
2021/04/21 00:01:42;;;;;;;60.53;32.05;;;;;;;3.61;100.00;95957.91;1023692;29;20110;-62
2021/04/21 00:02:15;;;;;;;62.03;33.17;;;;;;;3.60;100.00;95957.06;1031445;28;20014;-61
2021/04/21 00:02:49;;;;;;;62.97;35.60;;;;;;;3.60;100.00;95957.06;1023555;29;20453;-62
2021/04/21 00:03:20;;;;;;;64.70;34.33;;;;;;;3.60;100.00;95949.19;1019539;29;20111;-62
2021/04/21 00:03:51;;;;;;;60.00;32.90;;;;;;;3.60;100.00;95946.56;1027301;28;20481;-62
2021/04/21 00:04:22;;;;;;;57.70;31.85;;;;;;;3.58;100.00;95949.31;1027435;28;20018;-62
2021/04/21 00:04:53;;;;;;;64.95;33.25;;;;;;;3.56;100.00;95946.00;1023463;29;20026;-63
2021/04/21 00:05:24;;;;;;;59.40;33.85;;;;;;;3.52;100.00;95947.22;1023506;29;20023;-60
2021/04/21 00:05:55;;;;;;;66.85;33.88;;;;;;;3.49;100.00;95947.47;1019584;29;20019;-63
2021/04/21 00:06:27;;;;;;;64.63;35.00;;;;;;;3.48;100.00;95939.75;1027472;28;20023;-63
2021/04/21 00:06:57;;;;;;;59.03;32.83;;;;;;;3.49;100.00;95944.84;1027501;28;20015;-63
2021/04/21 00:07:28;;;;;;;57.70;31.52;;;;;;;3.50;100.00;95941.28;1035458;28;20030;-63
2021/04/21 00:07:59;;;;;;;56.40;30.75;;;;;;;3.49;100.00;95942.25;1031499;28;20026;-63
2021/04/21 00:08:30;;;;;;;57.40;31.50;;;;;;;3.49;100.00;95939.59;1023403;29;20075;-62
2021/04/21 00:09:00;;;;;;;63.20;34.15;;;;;;;3.48;100.00;95945.81;1031462;28;20050;-62
2021/04/21 00:09:31;;;;;;;68.95;34.15;;;;;;;3.48;100.00;95937.94;1019624;29;20016;-63
2021/04/21 00:10:06;;;;;;;57.15;31.02;;;;;;;3.48;100.00;95943.19;1027492;28;20033;-63
2021/04/21 00:10:37;;;;;;;56.08;30.58;;;;;;;3.48;100.00;95943.19;1027453;28;20524;-62
2021/04/21 00:11:07;;;;;;;58.60;30.20;;;;;;;3.48;100.00;95945.81;1019619;29;20110;-63
2021/04/21 00:11:38;;;;;;;58.97;32.88;;;;;;;3.45;100.00;95940.84;1035579;28;20022;-62
2021/04/21 00:12:10;;;;;;;64.95;33.85;;;;;;;3.46;100.00;95942.50;1027576;28;20030;-63
2021/04/21 00:12:40;;;;;;;59.45;33.38;;;;;;;3.46;100.00;95942.50;1023449;29;20471;-62
2021/04/21 00:13:11;;;;;;;56.13;30.80;;;;;;;3.43;100.00;95934.91;1027472;28;20015;-62
2021/04/21 00:13:44;;;;;;;57.40;31.38;;;;;;;3.46;100.00;95939.88;1019359;29;20068;-63
2021/04/21 00:14:17;;;;;;;58.50;30.70;;;;;;;3.47;100.00;95938.91;1027527;28;20026;-62
2021/04/21 00:14:50;;;;;;;59.45;32.35;;;;;;;3.46;100.00;95936.41;1031413;28;20014;-63
2021/04/21 00:15:22;;;;;;;64.28;33.00;;;;;;;3.44;100.00;95944.44;1027495;28;20029;-63
2021/04/21 00:15:53;;;;;;;63.70;33.38;;;;;;;3.44;100.00;95931.28;1031397;28;20531;-63
2021/04/21 00:16:24;;;;;;;57.35;31.73;;;;;;;3.42;100.00;95938.47;1023535;29;20030;-63
2021/04/21 00:16:58;;;;;;;63.97;33.63;;;;;;;3.41;100.00;95931.56;1027364;28;20019;-63
2021/04/21 00:17:28;;;;;;;59.28;33.03;;;;;;;3.38;100.00;95932.66;1027444;28;20022;-62
2021/04/21 00:18:02;;;;;;;61.10;33.65;;;;;;;3.39;100.00;95936.13;1019420;29;20024;-63
2021/04/21 00:18:34;;;;;;;57.90;31.75;;;;;;;3.39;100.00;95934.31;1019574;28;20111;-63
2021/04/21 00:19:05;;;;;;;53.92;30.20;;;;;;;3.40;100.00;95929.91;1027307;28;20071;-62
2021/04/21 00:19:37;;;;;;;54.45;30.45;;;;;;;3.40;100.00;95935.16;1027549;28;20026;-61
2021/04/21 00:20:08;;;;;;;63.50;33.00;;;;;;;3.39;100.00;95933.50;1023567;29;20560;-62
2021/04/21 00:20:39;;;;;;;57.20;31.10;;;;;;;3.40;100.00;95935.16;1031470;28;20015;-62
2021/04/21 00:21:10;;;;;;;53.15;30.23;;;;;;;3.40;100.00;95940.41;1023342;29;20027;-60
2021/04/21 00:21:41;;;;;;;55.22;30.02;;;;;;;3.38;100.00;95934.47;1031477;28;20025;-62
2021/04/21 00:22:13;;;;;;;56.35;32.47;;;;;;;3.37;100.00;95930.16;1023552;29;20078;-62
2021/04/21 00:22:45;;;;;;;59.92;31.52;;;;;;;3.35;100.00;95925.03;1023448;29;20025;-62
2021/04/21 00:23:16;;;;;;;58.80;31.98;;;;;;;3.36;100.00;95925.88;1027424;28;20485;-63
2021/04/21 00:23:47;;;;;;;56.05;31.65;;;;;;;3.36;100.00;95928.50;1027307;28;20025;-63
2021/04/21 00:24:18;;;;;;;57.63;31.67;;;;;;;3.35;100.00;95932.09;1031520;28;20022;-63
2021/04/21 00:24:50;;;;;;;54.90;31.35;;;;;;;3.36;100.00;95928.50;1027415;28;20015;-63
2021/04/21 00:25:22;;;;;;;57.20;31.67;;;;;;;3.37;100.00;95927.53;1027459;28;20516;-62
2021/04/21 00:25:55;;;;;;;53.67;30.95;;;;;;;3.37;100.00;95927.53;1031495;28;20018;-63
2021/04/21 00:26:26;;;;;;;53.65;30.08;;;;;;;3.36;100.00;95926.72;1027517;28;20350;-63
2021/04/21 00:26:57;;;;;;;48.33;28.60;;;;;;;3.36;100.00;95931.13;1027542;28;20033;-62
2021/04/21 00:27:28;;;;;;;55.65;30.95;;;;;;;3.36;100.00;95931.97;1019395;29;20107;-62
2021/04/21 00:27:59;;;;;;;52.90;28.05;;;;;;;3.37;100.00;95931.00;1031491;28;20150;-62
2021/04/21 00:28:32;;;;;;;56.20;31.02;;;;;;;3.36;100.00;95933.75;1035626;28;20041;-63
2021/04/21 00:29:04;;;;;;;56.58;31.73;;;;;;;3.37;100.00;95927.53;1035828;28;20022;-63
2021/04/21 00:29:37;;;;;;;54.78;30.65;;;;;;;3.33;100.00;95926.97;1028084;28;20019;-63
2021/04/21 00:30:09;;;;;;;55.38;30.42;;;;;;;3.34;100.00;95928.63;1024273;29;20015;-62
2021/04/21 00:30:41;;;;;;;51.45;28.65;;;;;;;3.35;100.00;95929.47;1024281;29;20019;-62
2021/04/21 00:31:12;;;;;;;48.13;29.73;;;;;;;3.35;100.00;95932.09;1032294;28;20022;-62
2021/04/21 00:31:44;;;;;;;55.92;30.83;;;;;;;3.36;100.00;95928.50;1028177;28;20088;-62
2021/04/21 00:32:15;;;;;;;55.58;29.58;;;;;;;3.34;100.00;95927.81;1028228;28;20114;-63
2021/04/21 00:32:48;;;;;;;48.30;28.92;;;;;;;3.27;100.00;95913.53;1028316;28;20542;-63
2021/04/21 00:33:19;;;;;;;51.85;29.38;;;;;;;3.34;100.00;95923.38;1016298;29;20024;-61
2021/04/21 00:33:53;;;;;;;48.70;28.77;;;;;;;3.30;100.00;95914.13;1031972;28;20045;-62
2021/04/21 00:34:24;;;;;;;49.75;28.27;;;;;;;3.39;100.00;95925.63;1028210;28;20023;-62
2021/04/21 00:34:56;;;;;;;49.33;29.27;;;;;;;3.39;100.00;95928.25;1024264;29;20027;-62
2021/04/21 00:35:30;;;;;;;51.40;30.63;;;;;;;3.39;100.00;95923.00;1020360;29;20031;-62
2021/04/21 00:36:02;;;;;;;50.80;28.38;;;;;;;3.38;100.00;95918.72;1024208;28;20107;-63
2021/04/21 00:36:33;;;;;;;55.40;31.38;;;;;;;3.37;100.00;95919.66;1028190;28;20019;-62
2021/04/21 00:37:04;;;;;;;53.28;28.80;;;;;;;3.36;100.00;95925.88;1032995;28;20042;-63
2021/04/21 00:37:35;;;;;;;51.13;30.05;;;;;;;3.35;100.00;95922.41;1036184;28;20160;-62
2021/04/21 00:38:15;;;;;;;52.53;29.70;;;;;;;3.34;100.00;95922.56;1024132;29;20485;-63
2021/04/21 00:38:46;;;;;;;50.38;28.35;;;;;;;3.34;100.00;95915.50;1024236;29;20081;-62
2021/04/21 00:39:17;;;;;;;53.42;29.42;;;;;;;3.35;100.00;95918.97;1032247;28;20052;-62
2021/04/21 00:39:48;;;;;;;46.15;27.17;;;;;;;3.36;100.00;95913.59;1032119;28;20100;-63
2021/04/21 00:40:22;;;;;;;52.80;31.38;;;;;;;3.36;100.00;95910.97;1024194;29;20019;-61
2021/04/21 00:41:15;;;;;;;51.75;29.77;;;;;;;3.36;100.00;95915.38;1024279;28;20011;-63
2021/04/21 00:41:48;;;;;;;52.72;28.30;;;;;;;3.37;100.00;95920.50;1024125;29;20450;-62
2021/04/21 00:42:29;;;;;;;49.90;29.10;;;;;;;3.37;100.00;95915.25;1028105;28;20030;-63
2021/04/21 00:43:13;;;;;;;52.25;29.98;;;;;;;3.33;100.00;95916.47;1024312;29;20058;-62
2021/04/21 00:43:49;;;;;;;51.33;29.35;;;;;;;3.34;100.00;95914.69;1024101;29;20027;-63
2021/04/21 00:44:25;;;;;;;51.13;29.60;;;;;;;3.31;100.00;95910.53;1032118;28;20080;-62
2021/04/21 00:45:06;;;;;;;53.42;31.17;;;;;;;3.27;100.00;95910.91;1024261;29;20041;-62
2021/04/21 00:45:42;;;;;;;49.20;28.98;;;;;;;3.31;100.00;95914.94;1032322;28;20440;-61
2021/04/21 00:46:23;;;;;;;55.72;30.30;;;;;;;3.24;100.00;95909.41;1028186;28;20015;-61
2021/04/21 00:47:03;;;;;;;53.67;30.00;;;;;;;3.27;100.00;95910.91;1032232;28;20061;-63
2021/04/21 00:47:43;;;;;;;53.80;30.38;;;;;;;3.27;100.00;95914.38;1032144;28;20018;-63
2021/04/21 00:48:36;;;;;;;51.88;29.42;;;;;;;3.29;100.00;95909.00;1028015;28;20122;-62
2021/04/21 00:49:18;;;;;;;56.10;31.08;;;;;;;3.30;100.00;95908.88;1028343;28;20088;-62
2021/04/21 00:49:59;;;;;;;50.85;29.48;;;;;;;3.31;100.00;95910.53;1028239;28;20058;-63
2021/04/21 00:50:45;;;;;;;51.15;28.52;;;;;;;3.32;100.00;95911.34;1028093;28;20022;-62
2021/04/21 00:51:36;;;;;;;53.67;29.67;;;;;;;3.30;100.00;95908.03;1032150;28;20026;-62
2021/04/21 00:52:11;;;;;;;52.17;29.40;;;;;;;3.29;100.00;95914.25;1020198;29;20027;-63
2021/04/21 00:53:02;;;;;;;53.70;30.80;;;;;;;3.21;100.00;95914.91;1016183;29;20027;-62
2021/04/21 00:53:37;;;;;;;57.30;31.13;;;;;;;3.20;100.00;95914.09;1024069;29;20027;-62
2021/04/21 00:54:11;;;;;;;51.50;29.55;;;;;;;3.20;100.00;95914.09;1024171;29;20028;-63
2021/04/21 00:54:45;;;;;;;51.85;30.45;;;;;;;3.21;100.00;95910.47;1028104;28;20081;-62
2021/04/21 00:55:29;;;;;;;59.55;31.77;;;;;;;3.16;100.00;95912.66;1024169;29;20421;-63
2021/04/21 00:56:12;;;;;;;56.38;30.85;;;;;;;3.15;100.00;95913.66;1016244;29;20024;-62
2021/04/21 00:56:55;;;;;;;57.30;31.58;;;;;;;3.14;100.00;95917.22;1024177;28;20026;-63
2021/04/21 00:57:29;;;;;;;58.05;29.30;;;;;;;3.14;100.00;95911.97;1032917;28;20435;-61
2021/04/21 00:58:12;;;;;;;56.63;31.33;;;;;;;3.13;100.00;95917.34;1032078;28;20022;-63
2021/04/21 00:58:53;;;;;;;57.75;31.15;;;;;;;3.11;100.00;95912.22;1032078;28;20588;-62
2021/04/21 00:59:43;;;;;;;58.58;31.92;;;;;;;3.00;100.00;95904.47;1036282;28;20022;-63
2021/04/21 01:00:17;;;;;;;61.50;30.55;;;;;;;2.98;100.00;95914.25;1024134;29;20031;-62
2021/04/21 01:00:48;;;;;;;57.47;31.17;;;;;;;3.02;100.00;95913.03;1036083;28;20081;-62
2021/04/21 01:01:19;;;;;;;56.58;32.80;;;;;;;3.03;100.00;95912.06;1032196;28;20023;-62
2021/04/21 01:01:49;;;;;;;57.05;31.88;;;;;;;3.02;100.00;95907.78;1032120;28;20098;-62
2021/04/21 01:02:22;;;;;;;66.30;34.35;;;;;;;3.02;100.00;95913.84;1032187;28;20030;-63
2021/04/21 01:02:56;;;;;;;63.17;34.58;;;;;;;3.00;100.00;95910.53;1024009;29;20015;-63
2021/04/21 01:03:27;;;;;;;64.15;34.55;;;;;;;2.96;100.00;95910.91;1028193;28;20062;-63
2021/04/21 01:03:58;;;;;;;65.68;35.67;;;;;;;2.91;100.00;95918.31;1035974;28;20546;-63
2021/04/21 01:04:29;;;;;;;69.55;34.95;;;;;;;2.92;100.00;95920.00;1032136;28;20017;-62
2021/04/21 01:05:00;;;;;;;66.40;36.15;;;;;;;2.94;100.00;95921.53;1028014;28;20579;-62
2021/04/21 01:05:34;;;;;;;64.72;34.72;;;;;;;2.93;100.00;95917.25;1028188;28;20065;-62
2021/04/21 01:06:11;;;;;;;74.07;36.90;;;;;;;2.95;100.00;95917.13;1028149;28;20037;-63
2021/04/21 01:06:43;;;;;;;63.42;33.90;;;;;;;2.95;100.00;95919.75;1028110;28;20022;-63
2021/04/21 01:07:14;;;;;;;59.13;32.90;;;;;;;2.94;100.00;95912.81;1033665;28;20019;-64
2021/04/21 01:07:46;;;;;;;63.78;34.63;;;;;;;2.94;100.00;95916.28;1036261;28;20476;-63
2021/04/21 01:08:21;;;;;;;65.07;33.80;;;;;;;2.94;100.00;95912.81;1023973;29;20054;-62
2021/04/21 01:08:55;;;;;;;60.95;33.42;;;;;;;2.94;100.00;95912.81;1028001;28;20015;-62
2021/04/21 01:09:26;;;;;;;66.25;35.50;;;;;;;2.94;100.00;95918.06;1028115;28;20015;-62
2021/04/21 01:09:57;;;;;;;62.92;33.38;;;;;;;2.86;100.00;95896.91;1028145;28;20456;-62
2021/04/21 01:10:31;;;;;;;67.43;35.13;;;;;;;2.93;100.00;95916.44;1036192;28;20014;-63
2021/04/21 01:11:04;;;;;;;68.72;34.03;;;;;;;2.89;100.00;95913.25;1028029;28;20075;-62
2021/04/21 01:11:37;;;;;;;58.70;33.13;;;;;;;2.82;100.00;95899.81;1032116;28;20019;-62
2021/04/21 01:12:11;;;;;;;60.88;32.72;;;;;;;2.91;100.00;95913.09;1032114;28;20046;-62
2021/04/21 01:12:43;;;;;;;62.38;34.10;;;;;;;2.81;100.00;95900.75;1036112;28;20021;-62
2021/04/21 01:13:15;;;;;;;63.53;34.25;;;;;;;2.87;100.00;95911.69;1031988;28;20484;-63
2021/04/21 01:13:48;;;;;;;66.65;33.67;;;;;;;2.85;100.00;95913.63;1023900;29;20019;-62
2021/04/21 01:14:22;;;;;;;63.50;35.28;;;;;;;2.86;100.00;95912.63;1028027;28;20042;-63
2021/04/21 01:15:03;;;;;;;58.35;32.50;;;;;;;2.78;100.00;95901.00;1032067;28;20076;-63
2021/04/21 01:15:34;;;;;;;65.05;33.40;;;;;;;2.86;100.00;95912.63;1024049;29;20493;-62
2021/04/21 01:16:05;;;;;;;65.15;34.38;;;;;;;2.85;100.00;95917.06;1028144;28;20019;-63
2021/04/21 01:16:36;;;;;;;61.03;33.42;;;;;;;2.83;100.00;95911.94;1020260;29;20098;-63
2021/04/21 01:17:08;;;;;;;64.53;32.47;;;;;;;2.84;100.00;95918.03;1028068;28;20038;-61
2021/04/21 01:17:40;;;;;;;61.30;33.72;;;;;;;2.83;100.00;95917.19;1040097;28;20262;-62
2021/04/21 01:18:11;;;;;;;62.13;33.63;;;;;;;2.80;100.00;95914.00;1032038;28;20031;-63
2021/04/21 01:18:42;;;;;;;59.83;32.72;;;;;;;2.83;100.00;95916.38;1032106;28;20504;-63
2021/04/21 01:19:21;;;;;;;60.17;33.35;;;;;;;2.83;100.00;95918.97;1024068;29;20023;-62
2021/04/21 01:19:59;;;;;;;57.03;30.95;;;;;;;2.74;100.00;95904.84;1020101;29;20151;-60
2021/04/21 01:20:34;;;;;;;68.47;34.53;;;;;;;2.80;100.00;95916.63;1028106;28;20114;-61
2021/04/21 01:21:11;;;;;;;64.15;33.58;;;;;;;2.80;100.00;95922.72;1032103;28;20068;-62
2021/04/21 01:21:45;;;;;;;54.40;29.92;;;;;;;2.79;100.00;95915.78;1032033;28;20014;-62
2021/04/21 01:22:25;;;;;;;62.05;34.15;;;;;;;2.80;100.00;95917.47;1026142;28;20460;-62
2021/04/21 01:23:11;;;;;;;57.92;31.55;;;;;;;2.79;100.00;95918.41;1032231;28;20524;-62
2021/04/21 01:23:54;;;;;;;60.08;31.85;;;;;;;2.76;100.00;95913.41;1032372;28;20042;-62
2021/04/21 01:24:29;;;;;;;62.67;32.20;;;;;;;2.74;100.00;95917.97;1032554;28;20307;-63
2021/04/21 01:25:08;;;;;;;62.75;34.10;;;;;;;2.76;100.00;95907.34;1028532;28;20035;-63
2021/04/21 01:25:58;;;;;;;63.78;32.05;;;;;;;2.69;100.00;95909.66;1028336;28;20019;-63
2021/04/21 01:26:49;;;;;;;58.03;31.33;;;;;;;2.71;100.00;95915.59;1024623;29;20023;-62
2021/04/21 01:27:21;;;;;;;55.15;31.30;;;;;;;2.73;100.00;95910.22;1026310;28;20497;-63
2021/04/21 01:27:54;;;;;;;58.00;31.15;;;;;;;2.71;100.00;95915.59;1028836;28;20022;-63
2021/04/21 01:28:25;;;;;;;62.72;32.53;;;;;;;2.71;100.00;95910.34;1033026;28;20037;-61
2021/04/21 01:28:56;;;;;;;62.83;33.08;;;;;;;2.68;100.00;95913.22;1028868;28;20153;-62
2021/04/21 01:29:32;;;;;;;60.20;33.00;;;;;;;2.68;100.00;95913.22;1024805;29;20030;-63
2021/04/21 01:30:04;;;;;;;62.53;34.17;;;;;;;2.68;100.00;95909.78;1020688;29;20082;-63
2021/04/21 01:30:36;;;;;;;59.30;32.67;;;;;;;2.69;100.00;95914.91;1028085;28;20081;-62
2021/04/21 01:31:08;;;;;;;59.63;33.15;;;;;;;2.67;100.00;95911.56;1025350;28;20093;-62
2021/04/21 01:31:38;;;;;;;67.05;35.22;;;;;;;2.66;100.00;95911.69;1024069;29;20416;-62
2021/04/21 01:32:20;;;;;;;64.78;34.97;;;;;;;2.63;100.00;95923.28;1031949;28;20029;-61
2021/04/21 01:33:01;;;;;;;65.22;34.25;;;;;;;2.57;100.00;95911.50;1024064;29;20413;-62
2021/04/21 01:33:32;;;;;;;63.85;32.78;;;;;;;2.59;100.00;95914.00;1027890;28;20392;-63
2021/04/21 01:34:03;;;;;;;60.33;32.50;;;;;;;2.60;100.00;95916.50;1023897;29;20023;-62
2021/04/21 01:34:34;;;;;;;62.20;33.47;;;;;;;2.60;100.00;95913.88;1032046;28;20010;-62
2021/04/21 01:35:06;;;;;;;61.05;32.97;;;;;;;2.61;100.00;95915.56;1024070;29;20046;-61
2021/04/21 01:35:37;;;;;;;54.60;32.38;;;;;;;2.62;100.00;95909.31;1027987;28;20019;-61
2021/04/21 01:36:08;;;;;;;66.15;35.55;;;;;;;2.61;100.00;95907.69;1016003;29;20036;-61
2021/04/21 01:36:39;;;;;;;64.40;34.92;;;;;;;2.60;100.00;95916.50;1024000;29;20019;-61
2021/04/21 01:37:12;;;;;;;65.50;34.67;;;;;;;2.58;100.00;95913.19;1019976;29;20455;-61
2021/04/21 01:37:43;;;;;;;64.45;34.50;;;;;;;2.57;100.00;95910.69;1027998;28;20146;-62
2021/04/21 01:38:13;;;;;;;70.80;36.97;;;;;;;2.56;100.00;95909.84;1019835;29;20033;-61
2021/04/21 01:38:44;;;;;;;66.30;35.38;;;;;;;2.57;100.00;95908.88;1020174;28;20356;-61
2021/04/21 01:39:15;;;;;;;63.83;34.40;;;;;;;2.57;100.00;95910.69;1027979;28;20015;-61
2021/04/21 01:40:07;;;;;;;70.20;35.55;;;;;;;2.58;100.00;95907.13;1032000;28;20496;-62
2021/04/21 01:40:40;;;;;;;63.28;32.47;;;;;;;2.53;100.00;95904.03;1027370;28;20017;-62
2021/04/21 01:41:13;;;;;;;66.30;33.60;;;;;;;2.58;100.00;95909.72;1027717;28;20533;-62
2021/04/21 01:41:46;;;;;;;61.70;34.08;;;;;;;2.57;100.00;95915.91;1027950;28;20106;-62
2021/04/21 01:42:17;;;;;;;57.05;31.80;;;;;;;2.57;100.00;95910.69;1027872;28;20042;-62
2021/04/21 01:42:52;;;;;;;61.10;33.20;;;;;;;2.57;100.00;95910.69;1020005;29;20110;-63
2021/04/21 01:43:27;;;;;;;61.30;33.70;;;;;;;2.57;100.00;95910.69;1027969;28;20111;-62
2021/04/21 01:44:02;;;;;;;67.30;34.85;;;;;;;2.58;100.00;95909.72;1023852;29;20022;-62
2021/04/21 01:44:40;;;;;;;65.72;36.00;;;;;;;2.56;100.00;95914.25;1035973;28;20061;-62
2021/04/21 01:45:14;;;;;;;71.25;35.97;;;;;;;2.55;100.00;95908.19;1032095;28;20046;-62
2021/04/21 01:45:45;;;;;;;64.47;33.00;;;;;;;2.57;100.00;95915.91;1032069;28;20046;-63
2021/04/21 01:46:16;;;;;;;58.42;34.05;;;;;;;2.56;100.00;95911.63;1024063;29;20029;-63
2021/04/21 01:46:57;;;;;;;63.63;34.30;;;;;;;2.55;100.00;95915.22;1023837;29;20453;-62
2021/04/21 01:47:28;;;;;;;63.85;33.85;;;;;;;2.53;100.00;95909.28;1031912;28;20015;-62
2021/04/21 01:48:02;;;;;;;60.28;32.67;;;;;;;2.54;100.00;95917.00;1027938;28;20015;-62
2021/04/21 01:48:34;;;;;;;57.92;32.22;;;;;;;2.53;100.00;95917.16;1027864;28;20031;-62
2021/04/21 01:49:16;;;;;;;62.88;33.92;;;;;;;2.52;100.00;95915.47;1019998;29;20082;-62
2021/04/21 01:49:58;;;;;;;67.18;34.10;;;;;;;2.47;100.00;95917.63;1023919;29;20042;-63
2021/04/21 01:50:29;;;;;;;62.92;33.20;;;;;;;2.45;100.00;95918.59;1028027;28;20014;-61
2021/04/21 01:51:05;;;;;;;68.57;35.70;;;;;;;2.44;100.00;95921.34;1023991;29;20019;-62
2021/04/21 01:51:37;;;;;;;75.47;37.67;;;;;;;2.43;100.00;95915.25;1031977;28;20034;-62
2021/04/21 01:52:16;;;;;;;70.95;35.88;;;;;;;2.46;100.00;95914.19;1035980;28;20018;-62
2021/04/21 01:53:07;;;;;;;71.20;36.05;;;;;;;2.45;100.00;95910.72;1036047;28;20830;-61
2021/04/21 01:53:50;;;;;;;63.90;33.13;;;;;;;2.47;100.00;95912.41;1031781;28;20026;-61
2021/04/21 01:54:23;;;;;;;70.35;35.28;;;;;;;2.45;100.00;95918.59;1031998;28;20117;-63
2021/04/21 01:54:56;;;;;;;62.60;32.78;;;;;;;2.45;100.00;95923.00;1027927;28;20029;-62
2021/04/21 01:55:47;;;;;;;63.78;33.55;;;;;;;2.47;100.00;95915.00;1027973;28;20516;-62
2021/04/21 01:56:23;;;;;;;67.32;35.38;;;;;;;2.45;100.00;95912.53;1036013;28;20022;-62
2021/04/21 01:56:59;;;;;;;65.93;33.65;;;;;;;2.45;100.00;95918.59;1031656;28;20033;-62
2021/04/21 01:57:48;;;;;;;65.40;33.67;;;;;;;2.44;100.00;95910.88;1027866;28;20051;-63
2021/04/21 01:58:39;;;;;;;64.07;33.33;;;;;;;2.45;100.00;95910.72;1035839;28;20314;-63
2021/04/21 01:59:21;;;;;;;70.10;34.15;;;;;;;2.44;100.00;95919.56;1035927;28;20029;-61
2021/04/21 01:59:57;;;;;;;71.13;35.88;;;;;;;2.42;100.00;95913.63;1030788;28;20513;-63
2021/04/21 02:00:40;;;;;;;67.32;35.50;;;;;;;2.41;100.00;95921.59;1027956;28;20022;-63
2021/04/21 02:01:28;;;;;;;69.65;36.30;;;;;;;2.39;100.00;95921.72;1027726;28;20037;-62
2021/04/21 02:02:00;;;;;;;80.60;37.63;;;;;;;2.40;100.00;95915.53;1027955;28;20018;-63
2021/04/21 02:02:37;;;;;;;68.07;34.78;;;;;;;2.40;100.00;95915.53;1027890;28;20514;-63
2021/04/21 02:03:18;;;;;;;68.15;36.22;;;;;;;2.40;100.00;95920.78;1027862;28;20448;-63
2021/04/21 02:03:52;;;;;;;69.93;34.67;;;;;;;2.39;100.00;95913.88;1023766;29;20015;-62
2021/04/21 02:04:43;;;;;;;71.45;35.67;;;;;;;2.41;100.00;95922.44;1027991;28;20045;-63
2021/04/21 02:05:24;;;;;;;71.22;36.75;;;;;;;2.38;100.00;95917.44;1027820;28;20014;-62
2021/04/21 02:06:10;;;;;;;75.80;36.70;;;;;;;2.38;100.00;95920.06;1031942;28;20092;-61
2021/04/21 02:07:01;;;;;;;80.13;37.17;;;;;;;2.36;100.00;95919.34;1031950;28;20490;-61
2021/04/21 02:07:37;;;;;;;79.30;36.58;;;;;;;2.35;100.00;95915.09;1035856;28;20022;-62
2021/04/21 02:08:20;;;;;;;72.70;35.28;;;;;;;2.35;100.00;95917.69;1031947;28;20077;-63
2021/04/21 02:09:03;;;;;;;70.97;34.40;;;;;;;2.34;100.00;95915.22;1027881;28;20424;-62
2021/04/21 02:09:53;;;;;;;67.82;34.85;;;;;;;2.30;100.00;95905.91;1027766;28;20023;-62
2021/04/21 02:10:53;;;;;;;69.53;35.20;;;;;;;2.33;100.00;95910.91;1027730;28;20461;-62
2021/04/21 02:11:25;;;;;;;72.20;35.47;;;;;;;2.32;100.00;95909.25;1027892;28;20489;-61
2021/04/21 02:12:12;;;;;;;68.03;35.10;;;;;;;2.33;100.00;95916.16;1023821;29;20561;-62
2021/04/21 02:12:49;;;;;;;70.03;34.03;;;;;;;2.31;100.00;95911.03;1019903;29;20513;-62
2021/04/21 02:13:32;;;;;;;69.97;33.58;;;;;;;2.31;100.00;95912.84;1019903;29;20020;-63
2021/04/21 02:14:18;;;;;;;64.80;33.42;;;;;;;2.30;100.00;95911.16;1019969;29;20457;-63
2021/04/21 02:15:08;;;;;;;64.95;33.38;;;;;;;2.29;100.00;95914.75;1020009;29;20240;-63
2021/04/21 02:15:52;;;;;;;68.10;32.75;;;;;;;2.29;100.00;95912.13;1028700;28;20026;-62
2021/04/21 02:16:35;;;;;;;73.50;35.22;;;;;;;2.28;100.00;95911.28;1028355;28;20043;-63
2021/04/21 02:17:16;;;;;;;71.57;35.58;;;;;;;2.28;100.00;95908.66;1027092;28;20073;-62
2021/04/21 02:18:00;;;;;;;64.82;33.88;;;;;;;2.25;100.00;95916.78;1023785;29;20020;-63
2021/04/21 02:18:45;;;;;;;77.15;36.53;;;;;;;2.25;100.00;95906.31;1027809;28;20484;-62
2021/04/21 02:19:33;;;;;;;73.82;35.47;;;;;;;2.24;100.00;95915.13;1031921;28;20030;-63
2021/04/21 02:20:15;;;;;;;78.57;37.53;;;;;;;2.23;100.00;95910.81;1027702;28;20544;-62
2021/04/21 02:20:52;;;;;;;79.90;36.65;;;;;;;2.21;100.00;95915.34;1027931;28;20101;-63
2021/04/21 02:21:36;;;;;;;78.25;38.83;;;;;;;2.22;100.00;95917.03;1027992;28;20023;-62
2021/04/21 02:22:20;;;;;;;82.38;37.90;;;;;;;2.21;100.00;95910.97;1027579;28;20023;-63
2021/04/21 02:23:02;;;;;;;79.68;38.22;;;;;;;2.20;100.00;95914.53;1031841;28;20027;-62
2021/04/21 02:23:40;;;;;;;84.68;41.38;;;;;;;2.19;100.00;95906.81;1031747;28;20042;-63
2021/04/21 02:24:23;;;;;;;84.82;40.88;;;;;;;2.20;100.00;95918.94;1035700;28;20056;-62
2021/04/21 02:25:09;;;;;;;83.55;38.92;;;;;;;2.17;100.00;95906.09;1031855;28;20034;-61
2021/04/21 02:25:51;;;;;;;80.45;38.30;;;;;;;2.18;100.00;95905.97;1031851;28;20018;-63
2021/04/21 02:26:35;;;;;;;80.55;36.88;;;;;;;2.20;100.00;95918.94;1031760;28;20034;-62
2021/04/21 02:27:16;;;;;;;74.97;37.83;;;;;;;2.19;100.00;95904.19;1023770;28;20023;-62
2021/04/21 02:28:06;;;;;;;76.03;38.20;;;;;;;2.18;100.00;95916.47;1035950;28;20068;-63
2021/04/21 02:28:47;;;;;;;77.13;36.83;;;;;;;2.18;100.00;95919.06;1027845;28;20027;-62
2021/04/21 02:29:34;;;;;;;77.00;38.40;;;;;;;2.21;100.00;95910.13;1027851;28;20324;-63
2021/04/21 02:30:13;;;;;;;74.32;34.88;;;;;;;2.20;100.00;95913.72;1027860;28;20146;-62
2021/04/21 02:31:04;;;;;;;74.45;37.38;;;;;;;2.18;100.00;95911.22;1027868;28;20023;-63
2021/04/21 02:31:49;;;;;;;69.93;35.20;;;;;;;2.17;100.00;95909.53;1031881;28;20141;-63
2021/04/21 02:32:40;;;;;;;72.10;35.38;;;;;;;2.20;100.00;95913.72;1031751;28;20030;-62
2021/04/21 02:33:24;;;;;;;69.93;35.53;;;;;;;2.19;100.00;95912.03;1025323;28;20398;-62
2021/04/21 02:34:06;;;;;;;64.93;33.38;;;;;;;2.17;100.00;95913.97;1033401;28;20524;-63
2021/04/21 02:34:57;;;;;;;69.57;35.30;;;;;;;2.16;100.00;95910.50;1035798;28;20030;-62
2021/04/21 02:35:39;;;;;;;74.90;34.90;;;;;;;2.16;100.00;95917.53;1044094;28;20021;-62
2021/04/21 02:36:11;;;;;;;75.13;34.53;;;;;;;2.17;100.00;95906.09;1035787;28;20030;-61
2021/04/21 02:36:46;;;;;;;68.82;34.28;;;;;;;2.15;100.00;95906.22;1019782;28;20020;-63
2021/04/21 02:37:30;;;;;;;68.75;35.65;;;;;;;2.16;100.00;95905.28;1031712;28;20045;-63
2021/04/21 02:38:12;;;;;;;70.25;34.78;;;;;;;2.15;100.00;95910.63;1031780;28;20057;-62
2021/04/21 02:38:53;;;;;;;73.47;36.05;;;;;;;2.10;100.00;95911.00;1023692;29;20023;-63
2021/04/21 02:39:28;;;;;;;67.20;34.20;;;;;;;2.12;100.00;95908.25;1031715;28;20396;-62
2021/04/21 02:40:16;;;;;;;67.10;35.05;;;;;;;2.10;100.00;95908.38;1031737;28;20423;-62
2021/04/21 02:41:00;;;;;;;65.43;33.28;;;;;;;2.05;100.00;95910.53;1031734;28;20465;-62
2021/04/21 02:41:55;;;;;;;73.88;35.15;;;;;;;2.06;100.00;95907.81;1027981;28;20485;-63
2021/04/21 02:42:40;;;;;;;65.82;34.03;;;;;;;2.04;100.00;95909.72;1024856;28;20023;-62
2021/04/21 02:43:20;;;;;;;71.63;34.85;;;;;;;2.03;100.00;95909.84;1024795;28;20012;-63
2021/04/21 02:44:04;;;;;;;63.30;33.20;;;;;;;2.06;100.00;95906.97;1031519;28;20404;-62
2021/04/21 02:44:54;;;;;;;72.32;35.90;;;;;;;2.06;100.00;95909.59;1027769;28;20007;-62
2021/04/21 02:45:37;;;;;;;65.07;33.75;;;;;;;2.06;100.00;95902.56;1023778;29;20043;-63
2021/04/21 02:46:20;;;;;;;69.57;34.17;;;;;;;2.07;100.00;95904.25;1027709;28;20014;-62
2021/04/21 02:47:03;;;;;;;70.25;34.03;;;;;;;2.06;100.00;95909.59;1028528;28;20089;-62
2021/04/21 02:47:44;;;;;;;64.13;31.58;;;;;;;2.06;100.00;95910.41;1027723;28;20440;-61
2021/04/21 02:48:20;;;;;;;67.80;33.25;;;;;;;2.06;100.00;95910.41;1023755;29;20019;-61
2021/04/21 02:48:59;;;;;;;68.40;34.45;;;;;;;2.08;100.00;95910.28;1023747;29;20094;-62